Time;durP1;ratioP1;P1;durP2;ratioP2;P2;SDS_P1;SDS_P2;PMS_P1;PMS_P2;Temp;Humidity;BMP_temperature;BMP_pressure;BME280_temperature;BME280_humidity;BME280_pressure;Samples;Min_cycle;Max_cycle;Signal;HPM_P1;HPM_P2
2023/03/19 00:00:21;;;;;;;12.95;9.95;;;10.00;99.90;;;;;;5055243;28;20049;-44
2023/03/19 00:02:50;;;;;;;11.05;9.13;;;10.00;99.90;;;;;;5054632;28;20048;-43
2023/03/19 00:05:17;;;;;;;10.25;9.25;;;10.00;99.90;;;;;;5054658;28;20078;-51
2023/03/19 00:07:43;;;;;;;10.05;9.05;;;10.00;99.90;;;;;;5055546;28;20550;-42
2023/03/19 00:10:12;;;;;;;10.30;8.65;;;10.00;99.90;;;;;;5059767;28;20043;-50
2023/03/19 00:12:37;;;;;;;10.93;9.43;;;10.00;99.90;;;;;;5059289;28;20790;-48
2023/03/19 00:15:04;;;;;;;10.27;8.95;;;10.00;99.90;;;;;;5057996;28;20044;-43
2023/03/19 00:17:30;;;;;;;11.27;8.90;;;10.00;99.90;;;;;;5057769;28;20040;-44
2023/03/19 00:19:55;;;;;;;12.00;9.60;;;10.00;99.90;;;;;;5058319;28;20044;-46
2023/03/19 00:22:21;;;;;;;10.75;8.60;;;10.00;99.90;;;;;;5058888;28;20052;-51
2023/03/19 00:24:47;;;;;;;9.57;8.48;;;10.00;99.90;;;;;;5069935;28;20137;-46
2023/03/19 00:27:12;;;;;;;8.85;7.93;;;10.00;99.90;;;;;;5076988;28;20232;-43
2023/03/19 00:29:38;;;;;;;10.55;7.95;;;10.00;99.90;;;;;;5079750;28;20063;-42
2023/03/19 00:32:04;;;;;;;7.95;7.15;;;10.00;99.90;;;;;;5068154;28;20531;-46
2023/03/19 00:34:30;;;;;;;8.27;7.25;;;10.00;99.90;;;;;;5055960;28;20365;-43
2023/03/19 00:36:56;;;;;;;10.57;7.50;;;10.00;99.90;;;;;;5058952;28;20542;-46
2023/03/19 00:39:21;;;;;;;8.18;6.78;;;10.00;99.90;;;;;;5058908;28;20048;-43
2023/03/19 00:41:49;;;;;;;9.68;7.15;;;10.00;99.90;;;;;;5060841;28;20553;-46
2023/03/19 00:44:17;;;;;;;7.10;6.45;;;10.00;99.90;;;;;;5078482;28;20461;-40
2023/03/19 00:46:42;;;;;;;10.02;6.68;;;10.00;99.90;;;;;;5078000;28;20101;-45
2023/03/19 00:49:08;;;;;;;7.22;6.25;;;10.00;99.90;;;;;;5078803;28;20036;-49
2023/03/19 00:51:34;;;;;;;6.85;6.22;;;10.00;99.90;;;;;;5064099;28;20176;-43
2023/03/19 00:53:59;;;;;;;7.38;5.63;;;10.00;99.90;;;;;;5053479;28;20594;-45
2023/03/19 00:56:25;;;;;;;10.52;5.85;;;10.00;99.90;;;;;;5061123;28;20051;-45
2023/03/19 00:58:51;;;;;;;8.45;6.68;;;10.00;99.90;;;;;;5077746;28;20056;-42
2023/03/19 01:01:17;;;;;;;7.68;5.75;;;9.90;99.90;;;;;;5078288;28;20054;-43
2023/03/19 01:03:44;;;;;;;5.63;5.03;;;9.90;99.90;;;;;;5070285;28;20769;-51
2023/03/19 01:06:11;;;;;;;6.80;5.60;;;9.90;99.90;;;;;;5075206;28;20044;-52
2023/03/19 01:08:36;;;;;;;6.22;5.38;;;9.90;99.90;;;;;;5078553;28;20044;-42
2023/03/19 01:11:14;;;;;;;6.85;4.78;;;9.90;99.90;;;;;;5078456;28;20051;-48
2023/03/19 01:13:41;;;;;;;6.40;5.07;;;9.90;99.90;;;;;;5077205;28;20052;-49
2023/03/19 01:16:07;;;;;;;6.10;5.15;;;9.90;99.90;;;;;;5058302;28;20052;-42
2023/03/19 01:18:33;;;;;;;5.13;4.63;;;9.90;99.90;;;;;;5067269;28;20044;-39
2023/03/19 01:20:58;;;;;;;7.32;4.95;;;10.00;99.90;;;;;;5078221;28;20398;-42
2023/03/19 01:23:24;;;;;;;5.55;4.88;;;10.00;99.90;;;;;;5077984;28;20082;-43
2023/03/19 01:25:50;;;;;;;7.03;5.05;;;10.00;99.90;;;;;;5078359;28;20678;-39
2023/03/19 01:28:16;;;;;;;5.75;4.93;;;9.90;99.90;;;;;;5066113;28;20083;-44
2023/03/19 01:30:41;;;;;;;5.30;4.55;;;9.90;99.90;;;;;;5057629;28;20078;-47
2023/03/19 01:33:07;;;;;;;6.07;4.57;;;10.00;99.90;;;;;;5047882;28;20069;-44
2023/03/19 01:35:33;;;;;;;5.50;4.35;;;9.90;99.90;;;;;;5054072;28;20045;-46
2023/03/19 01:37:58;;;;;;;6.45;4.90;;;9.90;99.90;;;;;;5064760;28;20048;-45
2023/03/19 01:40:24;;;;;;;5.35;4.85;;;10.00;99.90;;;;;;5077789;28;20040;-45
2023/03/19 01:43:11;;;;;;;6.05;5.00;;;9.90;99.90;;;;;;5067513;28;20055;-44
2023/03/19 01:45:40;;;;;;;5.05;4.35;;;10.00;99.90;;;;;;5055790;28;20594;-47
2023/03/19 01:48:28;;;;;;;6.43;4.60;;;9.90;99.90;;;;;;5070912;28;20052;-40
2023/03/19 01:50:55;;;;;;;5.93;4.38;;;9.90;99.90;;;;;;5073151;28;20052;-45
2023/03/19 01:53:28;;;;;;;4.63;4.22;;;10.00;99.90;;;;;;5057431;28;20513;-45
2023/03/19 01:55:59;;;;;;;5.90;5.40;;;10.00;99.90;;;;;;5057768;28;20185;-48
2023/03/19 01:58:25;;;;;;;5.25;4.63;;;9.90;99.90;;;;;;5056647;28;20052;-44
2023/03/19 02:00:51;;;;;;;5.70;4.72;;;9.90;99.90;;;;;;5057900;28;20071;-46
2023/03/19 02:03:18;;;;;;;5.03;4.53;;;9.90;99.90;;;;;;5056709;28;20432;-51
2023/03/19 02:05:47;;;;;;;5.05;4.43;;;9.90;99.90;;;;;;5057740;28;20028;-40
2023/03/19 02:08:15;;;;;;;5.05;4.55;;;9.90;99.90;;;;;;5056705;28;20059;-41
2023/03/19 02:10:42;;;;;;;5.35;4.45;;;10.00;99.90;;;;;;5071647;28;20080;-48
2023/03/19 02:13:07;;;;;;;5.38;4.63;;;9.90;99.90;;;;;;5077572;28;20050;-41
2023/03/19 02:15:33;;;;;;;5.00;4.55;;;9.90;99.90;;;;;;5076665;28;20394;-41
2023/03/19 02:17:59;;;;;;;5.97;4.22;;;9.90;99.90;;;;;;5076356;28;20063;-44
2023/03/19 02:21:00;;;;;;;6.15;4.20;;;9.90;99.90;;;;;;5076842;28;20046;-41
2023/03/19 02:24:00;;;;;;;4.85;3.65;;;9.90;99.90;;;;;;5053269;28;20094;-50
2023/03/19 02:26:27;;;;;;;5.28;3.90;;;9.90;99.90;;;;;;5053616;28;20083;-51
2023/03/19 02:28:53;;;;;;;5.25;4.13;;;9.90;99.90;;;;;;5052382;28;20045;-43
2023/03/19 02:31:20;;;;;;;6.03;4.60;;;9.90;99.90;;;;;;5053443;28;20110;-40
2023/03/19 02:34:05;;;;;;;6.60;4.55;;;9.90;99.90;;;;;;5032748;28;20087;-49
2023/03/19 02:36:45;;;;;;;5.60;4.57;;;9.90;99.90;;;;;;5041122;28;20186;-45
2023/03/19 02:39:27;;;;;;;6.45;4.70;;;9.90;99.90;;;;;;5028303;28;20564;-48
2023/03/19 02:41:55;;;;;;;5.40;4.90;;;10.00;99.90;;;;;;5052985;28;20490;-49
2023/03/19 02:44:20;;;;;;;5.70;4.40;;;10.00;99.90;;;;;;5052798;28;20078;-46
2023/03/19 02:46:46;;;;;;;4.88;4.47;;;10.00;99.90;;;;;;5052407;28;20614;-48
2023/03/19 02:49:12;;;;;;;5.57;4.47;;;10.00;99.90;;;;;;5035721;28;20052;-50
2023/03/19 02:51:37;;;;;;;5.97;4.82;;;10.00;99.90;;;;;;5053721;28;20044;-50
2023/03/19 02:54:04;;;;;;;5.95;4.32;;;10.00;99.90;;;;;;5027541;28;20332;-44
2023/03/19 02:56:30;;;;;;;6.78;4.70;;;10.00;99.90;;;;;;5032739;28;20123;-45
2023/03/19 02:58:56;;;;;;;6.38;4.68;;;10.00;99.90;;;;;;5019017;28;20053;-42
2023/03/19 03:01:21;;;;;;;5.55;3.78;;;9.90;99.90;;;;;;5050216;28;20055;-49
2023/03/19 03:03:47;;;;;;;5.72;4.20;;;10.00;99.90;;;;;;5054079;28;20480;-43
2023/03/19 03:06:13;;;;;;;5.47;4.53;;;10.00;99.90;;;;;;5052698;28;20041;-47
2023/03/19 03:08:39;;;;;;;4.68;4.20;;;10.00;99.90;;;;;;5054439;28;20048;-53
2023/03/19 03:11:04;;;;;;;4.88;4.10;;;10.00;99.90;;;;;;5055790;28;20048;-41
2023/03/19 03:13:30;;;;;;;4.97;4.47;;;10.00;99.90;;;;;;5055325;28;20048;-43
2023/03/19 03:15:56;;;;;;;5.10;4.57;;;10.00;99.90;;;;;;5055779;28;20041;-43
2023/03/19 03:18:21;;;;;;;5.80;4.55;;;10.00;99.90;;;;;;5055380;28;20052;-47
2023/03/19 03:20:47;;;;;;;5.20;4.70;;;10.00;99.90;;;;;;5057839;28;20051;-49
2023/03/19 03:23:13;;;;;;;7.18;5.97;;;10.00;99.90;;;;;;5073531;28;20044;-43
2023/03/19 03:25:39;;;;;;;7.07;5.57;;;10.00;99.90;;;;;;5075924;28;20033;-53
2023/03/19 03:28:05;;;;;;;6.60;5.63;;;10.00;99.90;;;;;;5075566;28;20055;-44
2023/03/19 03:30:31;;;;;;;7.47;5.65;;;10.00;99.90;;;;;;5076059;28;20052;-40
2023/03/19 03:32:57;;;;;;;9.75;6.38;;;10.00;99.90;;;;;;5051554;28;20052;-49
2023/03/19 03:35:23;;;;;;;7.28;6.32;;;10.00;99.90;;;;;;5066343;28;20044;-42
2023/03/19 03:37:49;;;;;;;7.75;6.65;;;10.00;99.90;;;;;;5057386;28;20059;-42
2023/03/19 03:40:16;;;;;;;8.10;6.80;;;10.00;99.90;;;;;;5071244;28;20051;-44
2023/03/19 03:42:42;;;;;;;8.27;6.53;;;10.00;99.90;;;;;;5075463;28;20132;-47
2023/03/19 03:45:09;;;;;;;10.38;7.40;;;10.00;99.90;;;;;;5075181;28;20355;-45
2023/03/19 03:47:36;;;;;;;8.93;7.15;;;10.00;99.90;;;;;;5073932;28;20742;-42
2023/03/19 03:50:04;;;;;;;8.88;8.07;;;10.00;99.90;;;;;;5074203;28;20405;-48
2023/03/19 03:52:30;;;;;;;8.68;7.75;;;10.00;99.90;;;;;;5066480;28;20056;-42
2023/03/19 03:54:59;;;;;;;9.02;8.13;;;10.00;99.90;;;;;;5055046;28;20140;-47
2023/03/19 03:57:26;;;;;;;8.10;7.30;;;10.00;99.90;;;;;;5074751;28;20156;-42
2023/03/19 03:59:52;;;;;;;10.30;7.85;;;9.90;99.90;;;;;;5075162;28;20555;-46
2023/03/19 04:02:18;;;;;;;9.13;8.18;;;9.90;99.90;;;;;;5074227;28;20091;-41
2023/03/19 04:04:44;;;;;;;9.75;8.75;;;9.90;99.90;;;;;;5062715;28;20040;-45
2023/03/19 04:07:11;;;;;;;12.07;9.55;;;9.80;99.90;;;;;;5074478;28;20059;-50
2023/03/19 04:09:36;;;;;;;10.90;9.80;;;9.80;99.90;;;;;;5075186;28;20051;-43
2023/03/19 04:12:03;;;;;;;10.95;9.90;;;9.80;99.90;;;;;;5069505;28;20131;-44
2023/03/19 04:14:28;;;;;;;12.30;9.88;;;9.70;99.90;;;;;;5074224;28;20045;-46
2023/03/19 04:16:54;;;;;;;10.98;9.88;;;9.70;99.90;;;;;;5074743;28;20047;-43
2023/03/19 04:19:20;;;;;;;12.05;10.00;;;9.70;99.90;;;;;;5074305;28;20135;-47
2023/03/19 04:21:45;;;;;;;11.15;10.05;;;9.60;99.90;;;;;;5074009;28;20048;-45
2023/03/19 04:24:11;;;;;;;12.30;10.93;;;9.60;99.90;;;;;;5074519;28;20569;-45
2023/03/19 04:26:37;;;;;;;14.98;11.57;;;9.50;99.90;;;;;;5075459;28;20044;-43
2023/03/19 04:29:04;;;;;;;12.38;10.90;;;9.40;99.90;;;;;;5074787;28;20048;-46
2023/03/19 04:31:29;;;;;;;14.80;13.18;;;9.40;99.90;;;;;;5072826;28;20054;-39
2023/03/19 04:33:56;;;;;;;17.17;14.73;;;9.40;99.90;;;;;;5042156;28;20048;-39
2023/03/19 04:36:22;;;;;;;17.23;15.35;;;9.40;99.90;;;;;;5073160;28;20599;-45
2023/03/19 04:38:48;;;;;;;19.50;16.17;;;9.40;99.90;;;;;;5069279;28;20567;-46
2023/03/19 04:41:15;;;;;;;23.40;17.80;;;9.40;99.90;;;;;;5075127;28;20040;-43
2023/03/19 04:43:41;;;;;;;20.38;18.17;;;9.40;99.90;;;;;;5074704;28;20054;-51
2023/03/19 04:46:07;;;;;;;22.92;19.55;;;9.40;99.90;;;;;;5075026;28;20051;-45
2023/03/19 04:48:34;;;;;;;23.02;19.75;;;9.50;99.90;;;;;;5072607;28;20389;-45
2023/03/19 04:51:02;;;;;;;25.42;20.27;;;9.50;99.90;;;;;;5075770;28;20162;-40
2023/03/19 04:53:28;;;;;;;24.80;21.75;;;9.50;99.90;;;;;;5056961;28;20597;-40
2023/03/19 04:55:54;;;;;;;24.83;19.77;;;9.50;99.90;;;;;;5070953;28;20044;-41
2023/03/19 04:58:20;;;;;;;26.17;20.98;;;9.50;99.90;;;;;;5064448;28;20126;-41
2023/03/19 05:00:46;;;;;;;25.45;20.63;;;9.50;99.90;;;;;;5067245;28;20079;-44
2023/03/19 05:03:13;;;;;;;24.75;20.55;;;9.50;99.90;;;;;;5056028;28;20418;-50
2023/03/19 05:05:39;;;;;;;23.45;20.45;;;9.50;99.90;;;;;;5057315;28;20056;-51
2023/03/19 05:08:05;;;;;;;22.00;19.25;;;9.60;99.90;;;;;;5057567;28;20048;-45
2023/03/19 05:10:31;;;;;;;23.63;18.92;;;9.60;99.90;;;;;;5058516;28;20074;-39
2023/03/19 05:12:57;;;;;;;22.38;18.55;;;9.60;99.90;;;;;;5077575;28;20124;-50
2023/03/19 05:15:23;;;;;;;22.17;18.50;;;9.60;99.90;;;;;;5078045;28;20489;-43
2023/03/19 05:17:48;;;;;;;17.70;15.80;;;9.50;99.90;;;;;;5078054;28;20048;-49
2023/03/19 05:20:14;;;;;;;17.67;15.82;;;9.50;99.90;;;;;;5078341;28;20105;-46
2023/03/19 05:22:40;;;;;;;20.00;16.20;;;9.50;99.90;;;;;;5078128;28;20131;-49
2023/03/19 05:25:06;;;;;;;19.35;15.85;;;9.40;99.90;;;;;;5078460;28;20062;-42
2023/03/19 05:27:32;;;;;;;17.42;15.35;;;9.40;99.90;;;;;;5077530;28;20052;-48
2023/03/19 05:29:57;;;;;;;16.00;14.02;;;9.40;99.90;;;;;;5076476;28;20105;-48
2023/03/19 05:32:24;;;;;;;17.77;14.75;;;9.40;99.90;;;;;;5061640;28;20064;-41
2023/03/19 05:34:49;;;;;;;16.02;14.05;;;9.30;99.90;;;;;;5061037;28;20043;-47
2023/03/19 05:37:16;;;;;;;16.08;13.82;;;9.30;99.90;;;;;;5070463;28;20044;-39
2023/03/19 05:39:41;;;;;;;17.73;15.02;;;9.10;99.90;;;;;;5078687;28;20051;-45
2023/03/19 05:42:07;;;;;;;17.75;14.75;;;9.00;99.90;;;;;;5060863;28;20422;-51
2023/03/19 05:44:33;;;;;;;15.65;14.00;;;8.90;99.90;;;;;;5057727;28;20340;-42
2023/03/19 05:46:58;;;;;;;16.90;15.05;;;8.80;99.90;;;;;;5062273;28;20043;-42
2023/03/19 05:49:24;;;;;;;22.23;14.25;;;8.70;99.90;;;;;;5076550;28;20055;-41
2023/03/19 05:51:50;;;;;;;16.98;14.35;;;8.60;99.90;;;;;;5078047;28;20466;-39
2023/03/19 05:54:16;;;;;;;16.60;14.90;;;8.50;99.90;;;;;;5062147;28;20100;-49
2023/03/19 05:56:41;;;;;;;18.25;14.05;;;8.40;99.90;;;;;;5077488;28;20460;-45
2023/03/19 05:59:07;;;;;;;16.90;14.98;;;8.30;99.90;;;;;;5078510;28;20044;-48
2023/03/19 06:01:33;;;;;;;18.88;15.73;;;8.20;99.90;;;;;;5077532;28;20051;-43
2023/03/19 06:03:58;;;;;;;18.50;15.68;;;8.10;99.90;;;;;;5067966;28;20604;-47
2023/03/19 06:06:24;;;;;;;17.25;15.38;;;8.10;99.90;;;;;;5061315;28;20044;-47
2023/03/19 06:08:50;;;;;;;17.48;15.10;;;8.10;99.90;;;;;;5043645;28;20090;-42
2023/03/19 06:11:15;;;;;;;18.27;16.30;;;8.10;99.90;;;;;;5077451;28;20066;-39
2023/03/19 06:13:42;;;;;;;18.92;15.60;;;8.20;99.90;;;;;;5077192;28;20044;-45
2023/03/19 06:16:08;;;;;;;17.58;15.38;;;8.30;99.90;;;;;;5077628;28;20044;-50
2023/03/19 06:18:34;;;;;;;18.13;15.23;;;8.40;99.90;;;;;;5075519;28;20066;-47
2023/03/19 06:20:59;;;;;;;16.02;14.27;;;8.80;99.90;;;;;;5076560;28;20450;-42
2023/03/19 06:23:25;;;;;;;16.40;14.18;;;9.00;99.90;;;;;;5076623;28;20048;-40
2023/03/19 06:25:51;;;;;;;14.60;13.07;;;9.40;99.90;;;;;;5075172;28;20540;-42
2023/03/19 06:28:16;;;;;;;16.25;13.75;;;9.80;99.90;;;;;;5076491;28;20039;-42
2023/03/19 06:30:42;;;;;;;13.45;11.82;;;10.30;99.90;;;;;;5072492;28;20129;-48
2023/03/19 06:33:08;;;;;;;12.68;11.35;;;10.70;99.90;;;;;;5045922;28;20045;-47
2023/03/19 06:35:34;;;;;;;12.52;11.15;;;11.10;99.90;;;;;;5072756;28;20501;-45
2023/03/19 06:38:00;;;;;;;16.27;12.02;;;11.40;99.90;;;;;;5070347;28;20408;-43
2023/03/19 06:40:25;;;;;;;13.90;11.75;;;11.70;99.90;;;;;;5076719;28;20131;-40
2023/03/19 06:42:51;;;;;;;14.25;12.38;;;11.90;99.90;;;;;;5076763;28;20490;-41
2023/03/19 06:45:20;;;;;;;13.15;11.95;;;12.10;99.90;;;;;;5076531;28;20044;-47
2023/03/19 06:47:46;;;;;;;15.45;11.68;;;12.50;99.90;;;;;;5075995;28;20371;-45
2023/03/19 06:50:15;;;;;;;14.13;12.73;;;12.80;99.90;;;;;;5075942;28;20495;-42
2023/03/19 06:52:41;;;;;;;13.73;12.27;;;12.80;99.90;;;;;;5062701;28;20224;-48
2023/03/19 06:55:08;;;;;;;17.60;14.20;;;12.60;99.90;;;;;;5054794;28;20105;-41
2023/03/19 06:57:34;;;;;;;14.68;13.27;;;12.30;99.90;;;;;;5055608;28;20051;-49
2023/03/19 07:00:00;;;;;;;13.88;12.48;;;12.00;99.90;;;;;;5056096;28;20489;-47
2023/03/19 07:02:26;;;;;;;15.15;13.38;;;11.70;99.90;;;;;;5056518;28;20080;-45
2023/03/19 07:04:52;;;;;;;15.07;13.40;;;11.80;99.90;;;;;;5055417;28;20310;-43
2023/03/19 07:07:18;;;;;;;16.40;14.80;;;11.70;99.90;;;;;;5068047;28;20040;-42
2023/03/19 07:09:44;;;;;;;17.15;15.45;;;11.50;99.90;;;;;;5076095;28;20420;-46
2023/03/19 07:12:10;;;;;;;15.57;13.95;;;11.30;99.90;;;;;;5077043;28;20048;-44
2023/03/19 07:14:35;;;;;;;18.55;15.85;;;11.20;99.90;;;;;;5075571;28;20627;-43
2023/03/19 07:17:01;;;;;;;17.10;15.45;;;11.20;99.90;;;;;;5075740;28;20046;-41
2023/03/19 07:19:27;;;;;;;18.35;16.45;;;11.10;99.90;;;;;;5076340;28;20076;-40
2023/03/19 07:21:52;;;;;;;17.80;16.00;;;11.10;99.90;;;;;;5075974;28;20097;-44
2023/03/19 07:24:18;;;;;;;20.58;17.85;;;11.10;99.90;;;;;;5061627;28;20081;-47
2023/03/19 07:26:45;;;;;;;18.38;16.50;;;11.10;99.90;;;;;;5075372;28;20076;-45
2023/03/19 07:29:11;;;;;;;21.08;18.85;;;11.10;99.90;;;;;;5062017;28;20502;-51
2023/03/19 07:31:37;;;;;;;20.15;17.85;;;11.10;99.90;;;;;;5074175;28;20052;-41
2023/03/19 07:34:02;;;;;;;20.50;18.33;;;11.20;99.90;;;;;;5041846;28;20505;-46
2023/03/19 07:36:28;;;;;;;22.25;19.95;;;11.20;99.90;;;;;;5063444;28;20048;-45
2023/03/19 07:38:54;;;;;;;24.60;22.10;;;11.10;99.90;;;;;;5072617;28;20036;-49
2023/03/19 07:41:20;;;;;;;24.90;22.27;;;11.00;99.90;;;;;;5064960;28;20441;-47
2023/03/19 07:43:45;;;;;;;25.77;23.05;;;10.90;99.90;;;;;;5057919;28;20771;-44
2023/03/19 07:46:11;;;;;;;24.48;21.60;;;10.90;99.90;;;;;;5067056;28;20048;-50
2023/03/19 07:48:37;;;;;;;26.23;23.02;;;10.90;99.90;;;;;;5075605;28;20155;-41
2023/03/19 07:51:02;;;;;;;23.52;21.00;;;10.80;99.90;;;;;;5075264;28;20467;-44
2023/03/19 07:53:28;;;;;;;25.80;23.20;;;10.70;99.90;;;;;;5058155;28;20769;-42
2023/03/19 07:55:54;;;;;;;24.27;21.67;;;10.60;99.90;;;;;;5075893;28;20044;-49
2023/03/19 07:58:20;;;;;;;24.40;21.80;;;10.60;99.90;;;;;;5073776;28;20044;-44
2023/03/19 08:00:46;;;;;;;23.60;20.77;;;10.70;99.90;;;;;;5075711;28;20051;-47
2023/03/19 08:03:11;;;;;;;24.48;21.88;;;10.60;99.90;;;;;;5071327;28;20054;-46
2023/03/19 08:05:37;;;;;;;26.42;23.38;;;10.60;99.90;;;;;;5067646;28;20479;-49
2023/03/19 08:08:03;;;;;;;26.08;23.38;;;10.60;99.90;;;;;;5069794;28;20041;-45
2023/03/19 08:10:29;;;;;;;25.98;23.20;;;10.60;99.90;;;;;;5055473;28;20553;-49
2023/03/19 08:12:54;;;;;;;27.00;24.20;;;10.50;99.90;;;;;;5054287;28;20114;-45
2023/03/19 08:15:20;;;;;;;27.58;23.90;;;10.50;99.90;;;;;;5053902;28;20233;-40
2023/03/19 08:17:46;;;;;;;27.55;24.50;;;10.50;99.90;;;;;;5055146;28;20044;-48
2023/03/19 08:20:15;;;;;;;30.17;26.20;;;10.60;99.90;;;;;;5054844;28;20715;-49
2023/03/19 08:22:41;;;;;;;30.65;26.90;;;10.60;99.90;;;;;;5054470;28;20052;-54
2023/03/19 08:25:09;;;;;;;35.22;29.08;;;10.60;99.90;;;;;;5055541;28;20575;-46
2023/03/19 08:27:35;;;;;;;35.20;28.15;;;10.60;99.90;;;;;;5055409;28;20162;-47
2023/03/19 08:30:06;;;;;;;37.10;29.27;;;10.50;99.90;;;;;;5057542;28;20067;-46
2023/03/19 08:32:31;;;;;;;34.58;29.02;;;10.50;99.90;;;;;;5052016;28;20067;-43
2023/03/19 08:34:57;;;;;;;34.40;28.00;;;10.50;99.90;;;;;;5063468;28;20048;-47
2023/03/19 08:37:23;;;;;;;31.15;26.40;;;10.50;99.90;;;;;;5061136;28;20097;-43
2023/03/19 08:39:52;;;;;;;23.52;21.05;;;10.50;99.90;;;;;;5066869;28;20398;-40
2023/03/19 08:42:19;;;;;;;23.58;21.02;;;10.40;99.90;;;;;;5078592;28;20841;-50
2023/03/19 08:44:44;;;;;;;29.27;24.67;;;10.40;99.90;;;;;;5078303;28;20120;-48
2023/03/19 08:47:11;;;;;;;29.45;26.23;;;10.30;99.90;;;;;;5078427;28;20048;-52
2023/03/19 08:49:36;;;;;;;30.83;23.38;;;10.30;99.90;;;;;;5079454;28;20087;-48
2023/03/19 08:52:03;;;;;;;31.33;24.95;;;10.30;99.90;;;;;;5077264;28;20523;-51
2023/03/19 08:54:29;;;;;;;32.17;28.67;;;10.30;99.90;;;;;;5051192;28;20489;-48
2023/03/19 08:56:54;;;;;;;35.03;29.42;;;10.20;99.90;;;;;;5058003;28;20395;-47
2023/03/19 08:59:20;;;;;;;38.53;32.72;;;10.10;99.90;;;;;;5058147;28;20040;-40
2023/03/19 09:01:50;;;;;;;42.03;32.58;;;10.10;99.90;;;;;;5058744;28;20102;-45
2023/03/19 09:04:16;;;;;;;41.83;33.53;;;10.00;99.90;;;;;;5058105;28;20139;-49
2023/03/19 09:06:41;;;;;;;41.33;33.90;;;10.00;99.90;;;;;;5058175;28;20040;-45
2023/03/19 09:09:07;;;;;;;43.83;34.85;;;10.00;99.90;;;;;;5058337;28;20453;-50
2023/03/19 09:11:33;;;;;;;48.25;36.42;;;9.90;99.90;;;;;;5058025;28;20040;-42
2023/03/19 09:13:58;;;;;;;47.50;34.90;;;9.90;99.90;;;;;;5057169;28;20550;-47
2023/03/19 09:16:25;;;;;;;46.83;34.15;;;9.90;99.90;;;;;;5057368;28;20580;-45
2023/03/19 09:18:50;;;;;;;39.67;32.15;;;9.90;99.90;;;;;;5057844;28;20402;-41
2023/03/19 09:21:16;;;;;;;44.63;33.45;;;9.80;99.90;;;;;;5057135;28;20071;-46
2023/03/19 09:23:42;;;;;;;47.58;36.60;;;9.80;99.90;;;;;;5056660;28;20071;-47
2023/03/19 09:26:07;;;;;;;46.58;36.38;;;9.80;99.90;;;;;;5039828;28;20041;-50
2023/03/19 09:28:34;;;;;;;47.63;35.72;;;9.80;99.90;;;;;;5056669;28;20090;-42
2023/03/19 09:31:05;;;;;;;51.58;35.45;;;9.90;99.90;;;;;;5058112;28;20055;-49
2023/03/19 09:33:32;;;;;;;53.72;37.55;;;9.90;99.90;;;;;;5043500;28;20052;-43
2023/03/19 09:35:57;;;;;;;46.83;32.95;;;9.80;99.90;;;;;;5057694;28;20063;-48
2023/03/19 09:38:23;;;;;;;48.42;32.28;;;9.90;99.90;;;;;;5052621;28;20076;-46
2023/03/19 09:41:10;;;;;;;44.42;31.95;;;9.90;99.90;;;;;;5057566;28;20044;-48
2023/03/19 09:43:55;;;;;;;47.38;32.45;;;9.80;99.90;;;;;;5057230;28;20133;-47
2023/03/19 09:46:28;;;;;;;40.10;29.20;;;9.80;99.90;;;;;;5055710;28;20045;-48
2023/03/19 09:49:11;;;;;;;41.95;29.30;;;9.70;99.90;;;;;;5057545;28;20402;-46
2023/03/19 09:52:07;;;;;;;43.42;30.45;;;9.70;99.90;;;;;;5061389;28;20036;-46
2023/03/19 09:54:43;;;;;;;47.55;30.25;;;9.70;99.90;;;;;;5046468;28;20123;-49
2023/03/19 09:57:10;;;;;;;46.60;30.50;;;9.70;99.90;;;;;;5075725;28;20393;-50
2023/03/19 09:59:36;;;;;;;43.72;30.08;;;9.70;99.90;;;;;;5049939;28;20041;-44
2023/03/19 10:02:20;;;;;;;43.45;30.13;;;9.70;99.90;;;;;;5058162;28;20056;-47
2023/03/19 10:05:05;;;;;;;40.83;29.40;;;9.80;99.90;;;;;;5057388;28;20099;-51
2023/03/19 10:07:54;;;;;;;44.85;30.48;;;9.70;99.90;;;;;;5053415;28;20044;-40
2023/03/19 10:10:26;;;;;;;43.00;30.45;;;9.80;99.90;;;;;;5050928;28;20052;-47
2023/03/19 10:13:29;;;;;;;44.97;30.40;;;9.80;99.90;;;;;;5056201;28;20079;-45
2023/03/19 10:15:55;;;;;;;43.95;30.50;;;9.80;99.90;;;;;;5068734;28;20581;-50
2023/03/19 10:18:26;;;;;;;45.38;31.85;;;9.90;99.90;;;;;;5056881;28;20120;-48
2023/03/19 10:21:04;;;;;;;42.38;30.45;;;9.90;99.90;;;;;;5056082;28;20041;-45
2023/03/19 10:24:03;;;;;;;45.72;30.58;;;9.90;99.90;;;;;;5055436;28;20040;-40
2023/03/19 10:26:31;;;;;;;42.78;29.83;;;10.00;99.90;;;;;;5012575;28;20089;-47
2023/03/19 10:29:10;;;;;;;43.22;30.95;;;10.00;99.90;;;;;;5013485;28;20053;-45
2023/03/19 10:31:41;;;;;;;49.30;32.33;;;10.00;99.90;;;;;;5017607;28;20539;-45
2023/03/19 10:34:22;;;;;;;51.30;33.60;;;10.10;99.90;;;;;;5013264;28;20115;-40
2023/03/19 10:36:47;;;;;;;48.22;32.20;;;10.10;99.90;;;;;;5011125;28;20156;-44
2023/03/19 10:39:17;;;;;;;48.83;31.95;;;10.10;99.90;;;;;;5012775;28;20399;-49
2023/03/19 10:41:51;;;;;;;42.60;28.70;;;10.20;99.90;;;;;;5012990;28;20442;-48
2023/03/19 10:44:33;;;;;;;43.83;29.48;;;10.20;99.90;;;;;;5012542;28;20084;-45
2023/03/19 10:47:09;;;;;;;46.72;30.67;;;10.20;99.90;;;;;;4996186;28;20433;-48
2023/03/19 10:49:35;;;;;;;42.80;28.25;;;10.30;99.90;;;;;;5013293;28;20241;-41
2023/03/19 10:52:02;;;;;;;46.78;29.50;;;10.30;99.90;;;;;;5013159;28;20430;-48
2023/03/19 10:54:29;;;;;;;45.35;30.63;;;10.30;99.90;;;;;;4996597;28;20483;-44
2023/03/19 10:56:57;;;;;;;44.03;29.20;;;10.30;99.90;;;;;;4995814;28;20057;-41
2023/03/19 10:59:32;;;;;;;45.67;30.63;;;10.30;99.90;;;;;;5012799;28;20357;-44
2023/03/19 11:02:13;;;;;;;49.05;31.55;;;10.30;99.90;;;;;;5017876;28;20120;-44
2023/03/19 11:04:39;;;;;;;40.42;29.08;;;10.30;99.90;;;;;;5055290;28;20794;-52
2023/03/19 11:07:21;;;;;;;48.00;32.20;;;10.20;99.90;;;;;;5052144;28;20101;-44
2023/03/19 11:09:48;;;;;;;47.90;31.52;;;10.20;99.90;;;;;;5059963;28;20040;-55
2023/03/19 11:12:33;;;;;;;55.28;32.17;;;10.20;99.90;;;;;;5059938;28;20403;-47
2023/03/19 11:15:02;;;;;;;54.83;33.50;;;10.20;99.90;;;;;;5063961;28;20577;-43
2023/03/19 11:17:38;;;;;;;56.80;34.72;;;10.10;99.90;;;;;;5057917;28;20561;-46
2023/03/19 11:20:18;;;;;;;53.13;33.58;;;10.10;99.90;;;;;;5059870;28;20390;-42
2023/03/19 11:22:46;;;;;;;51.78;30.35;;;10.00;99.90;;;;;;5062580;28;20485;-48
2023/03/19 11:25:22;;;;;;;49.00;31.25;;;10.00;99.90;;;;;;5061592;28;20488;-45
2023/03/19 11:28:05;;;;;;;47.97;30.63;;;10.00;99.90;;;;;;5057444;28;20046;-40
2023/03/19 11:30:57;;;;;;;51.35;30.00;;;10.00;99.90;;;;;;5058322;28;20036;-41
2023/03/19 11:33:44;;;;;;;46.38;26.77;;;10.00;99.90;;;;;;5054480;28;20049;-41
2023/03/19 11:36:26;;;;;;;48.33;28.98;;;10.00;99.90;;;;;;5074651;28;20155;-52
2023/03/19 11:39:15;;;;;;;44.97;27.55;;;10.00;99.90;;;;;;5049943;28;20048;-48
2023/03/19 11:42:04;;;;;;;45.40;27.92;;;10.00;99.90;;;;;;5055717;28;20139;-44
2023/03/19 11:45:00;;;;;;;46.40;28.83;;;10.10;99.90;;;;;;5055027;28;20048;-45
2023/03/19 11:47:42;;;;;;;45.45;26.20;;;10.10;99.90;;;;;;5056128;28;20132;-48
2023/03/19 11:50:41;;;;;;;38.15;25.83;;;10.10;99.90;;;;;;5071364;28;20398;-42
2023/03/19 11:53:17;;;;;;;44.85;28.67;;;10.10;99.90;;;;;;5016565;28;20064;-47
2023/03/19 11:55:56;;;;;;;39.50;25.63;;;10.20;99.90;;;;;;5004861;28;20184;-47
2023/03/19 11:58:43;;;;;;;42.13;26.67;;;10.30;99.90;;;;;;5010558;28;20057;-49
2023/03/19 12:01:27;;;;;;;48.25;29.02;;;10.30;99.90;;;;;;5006859;28;20111;-54
2023/03/19 12:04:13;;;;;;;48.83;27.65;;;10.20;99.90;;;;;;5025769;28;20451;-48
2023/03/19 12:07:17;;;;;;;50.53;28.90;;;10.30;99.90;;;;;;5031544;28;20075;-54
2023/03/19 12:09:54;;;;;;;;;;;10.30;99.90;;;;;;5012932;28;20052;-46
2023/03/19 12:12:24;;;;;;;46.22;27.95;;;10.40;99.90;;;;;;5017574;28;20414;-46
2023/03/19 12:15:07;;;;;;;40.95;26.50;;;10.40;99.90;;;;;;5024827;28;20041;-47
2023/03/19 12:17:45;;;;;;;41.13;26.55;;;10.40;99.90;;;;;;5030895;28;20080;-43
2023/03/19 12:20:28;;;;;;;42.65;27.80;;;10.40;99.90;;;;;;5029330;28;20103;-49
2023/03/19 12:23:18;;;;;;;43.47;28.35;;;10.40;99.90;;;;;;5032788;28;20407;-45
2023/03/19 12:25:59;;;;;;;40.40;25.90;;;10.50;99.90;;;;;;5032072;28;20612;-51
2023/03/19 12:28:59;;;;;;;40.35;26.23;;;10.60;99.90;;;;;;5002005;28;20083;-44
2023/03/19 12:31:36;;;;;;;29.00;18.98;;;10.60;99.90;;;;;;5067858;28;20060;-49
2023/03/19 12:34:39;;;;;;;30.05;19.20;;;10.70;99.90;;;;;;5056434;28;20052;-45
2023/03/19 12:37:14;;;;;;;28.25;18.80;;;10.80;99.90;;;;;;5039471;28;20429;-44
2023/03/19 12:40:04;;;;;;;28.60;21.52;;;10.90;99.90;;;;;;5066066;28;20085;-49
2023/03/19 12:42:36;;;;;;;28.45;18.80;;;11.10;99.90;;;;;;5068442;28;20043;-48
2023/03/19 12:45:05;;;;;;;31.57;21.60;;;11.00;99.90;;;;;;5063138;28;20052;-42
2023/03/19 12:47:36;;;;;;;33.30;22.73;;;10.90;99.90;;;;;;5073999;28;20283;-39
2023/03/19 12:50:11;;;;;;;32.92;19.65;;;11.00;99.90;;;;;;5065043;28;20056;-43